8  °C
Temperature
46  °F
Temperature
45  °F
 Dewpoint
7  °C
  Dewpoint
93  %
 Humidity
  Temperature
9  mph
Wind Speed
8  kts
Wind Speed
14  km/h
Wind Speed
4.0  m/s
Wind Speed
270°
Due West

Wind Speed
Mostly Cloudy
Conditions
Pressure 1032.91 (mb) - 30.5 (inHG)
Visibility 6.2 (mi) - 10.0 (km)

Sky Conditions
EGGD
Location Bristol International 15 mi (24.14 km)
Metar :EGGD 201920Z 27008KT 9999 BKN004 08/07 Q1033
Wed 20th March 19:20 pm

Nearest Airport
https://www.checkwx.com/weather/EGGD
  Metar Aviation API Data Provided by https://www.checkwx.com/ Original CSS/SVG/PHP scripts by weather34.com © 2015-2019